createdAt,value
2022-08-04T00:02:43.907Z,24.40
2022-08-04T00:07:56.584Z,24.43
2022-08-04T00:12:58.102Z,24.47
2022-08-04T00:18:08.227Z,24.30
2022-08-04T00:23:09.764Z,24.30
2022-08-04T00:28:11.274Z,24.23
2022-08-04T00:33:13.707Z,24.26
2022-08-04T00:38:18.643Z,24.27
2022-08-04T00:43:48.945Z,24.28
2022-08-04T00:48:56.186Z,24.24
2022-08-04T00:54:25.399Z,24.18
2022-08-04T00:59:45.072Z,24.26
2022-08-04T01:05:12.204Z,24.34
2022-08-04T01:10:43.000Z,24.32
2022-08-04T01:16:03.691Z,24.33
2022-08-04T01:21:26.844Z,24.41
2022-08-04T01:26:57.366Z,24.43
2022-08-04T01:32:00.907Z,24.38
2022-08-04T01:37:11.658Z,24.45
2022-08-04T01:42:31.410Z,24.50
2022-08-04T01:47:41.673Z,24.38
2022-08-04T01:52:47.593Z,24.45
2022-08-04T01:57:52.611Z,24.54
2022-08-04T02:02:55.348Z,24.44
2022-08-04T02:08:02.896Z,24.38
2022-08-04T02:13:22.784Z,24.29
2022-08-04T02:18:33.587Z,24.16
2022-08-04T02:23:37.120Z,24.16
2022-08-04T02:28:49.763Z,24.13
2022-08-04T02:34:25.134Z,24.17
2022-08-04T02:39:28.598Z,24.26
2022-08-04T02:44:30.791Z,24.38
2022-08-04T02:49:35.734Z,24.30
2022-08-04T02:54:39.714Z,24.27
2022-08-04T02:59:59.631Z,24.05
2022-08-04T03:05:03.687Z,24.15
2022-08-04T03:10:30.706Z,24.16
2022-08-04T03:16:13.755Z,24.16
2022-08-04T03:21:47.792Z,23.91
2022-08-04T03:26:55.240Z,24.24
2022-08-04T03:32:08.216Z,24.23
2022-08-04T03:37:46.376Z,24.31
2022-08-04T03:43:05.398Z,24.25
2022-08-04T03:48:11.198Z,24.44
2022-08-04T03:53:18.465Z,24.45
2022-08-04T03:58:44.516Z,24.45
2022-08-04T04:03:48.634Z,24.53
2022-08-04T04:09:16.053Z,24.55
2022-08-04T04:14:46.813Z,24.45
2022-08-04T04:20:00.534Z,24.37
2022-08-04T04:25:22.534Z,24.46
2022-08-04T04:30:30.057Z,24.50
2022-08-04T04:35:35.509Z,24.50
2022-08-04T04:41:10.466Z,24.43
2022-08-04T04:46:15.986Z,24.49
2022-08-04T04:51:17.331Z,24.40
2022-08-04T04:56:38.683Z,24.29
2022-08-04T05:01:56.007Z,24.45
2022-08-04T05:07:25.218Z,24.42
2022-08-04T05:14:32.336Z,24.50
2022-08-04T05:17:59.646Z,24.16
2022-08-04T05:23:04.098Z,24.55
2022-08-04T05:28:09.902Z,24.68
2022-08-04T05:33:11.447Z,24.75
2022-08-04T05:38:14.947Z,24.78
2022-08-04T05:43:16.471Z,24.85
2022-08-04T05:48:18.014Z,25.02
2022-08-04T05:53:19.556Z,24.91
2022-08-04T05:58:21.472Z,24.93
2022-08-04T06:03:23.020Z,25.05
2022-08-04T06:08:24.764Z,25.06
2022-08-04T06:13:48.959Z,25.24
2022-08-04T06:19:59.804Z,25.38
2022-08-04T06:24:12.373Z,25.43
2022-08-04T06:29:22.692Z,25.69
2022-08-04T06:34:24.406Z,25.91
2022-08-04T06:39:26.032Z,26.15
2022-08-04T06:44:28.447Z,26.18
2022-08-04T06:49:30.002Z,26.18
2022-08-04T06:54:46.525Z,26.18
2022-08-04T06:59:54.509Z,26.16
2022-08-04T07:04:56.139Z,26.26
2022-08-04T07:09:57.515Z,26.37
2022-08-04T07:14:59.062Z,26.26
2022-08-04T07:20:00.601Z,26.32
2022-08-04T07:25:02.158Z,26.27
2022-08-04T07:30:05.911Z,26.18
2022-08-04T07:35:07.874Z,26.58
2022-08-04T07:40:09.540Z,26.74
2022-08-04T07:45:11.061Z,26.02
2022-08-04T07:50:12.972Z,26.68
2022-08-04T07:55:14.493Z,26.94
2022-08-04T08:00:15.911Z,26.68
2022-08-04T08:05:19.163Z,26.73
2022-08-04T08:10:20.803Z,26.99
2022-08-04T08:15:22.554Z,27.24
2022-08-04T08:20:29.056Z,27.26
2022-08-04T08:25:32.355Z,27.31
2022-08-04T08:30:34.108Z,27.52
2022-08-04T08:35:53.169Z,27.55
2022-08-04T08:40:58.882Z,27.85
2022-08-04T08:46:38.708Z,27.82
2022-08-04T08:52:16.360Z,28.15
2022-08-04T08:58:22.214Z,28.24
2022-08-04T09:04:23.885Z,28.33
2022-08-04T09:09:50.105Z,28.56
2022-08-04T09:15:05.799Z,28.68
2022-08-04T09:20:22.601Z,28.74
2022-08-04T09:25:30.798Z,28.78
2022-08-04T09:30:40.699Z,28.82
2022-08-04T09:35:48.255Z,28.91
2022-08-04T09:41:03.634Z,29.06
2022-08-04T09:46:26.817Z,29.15
2022-08-04T09:52:01.133Z,29.28
2022-08-04T09:57:34.639Z,29.53
2022-08-04T10:02:38.647Z,29.64
2022-08-04T10:08:04.840Z,29.83
2022-08-04T10:13:21.925Z,29.90
2022-08-04T10:18:45.237Z,30.10
2022-08-04T10:24:00.124Z,30.14
2022-08-04T10:29:07.183Z,29.62
2022-08-04T10:34:20.969Z,29.97
2022-08-04T10:39:43.147Z,30.16
2022-08-04T10:44:57.811Z,30.24
2022-08-04T10:50:00.769Z,29.99
2022-08-04T10:56:06.696Z,30.01
2022-08-04T11:01:06.525Z,30.25
2022-08-04T11:06:09.788Z,30.41
2022-08-04T11:11:57.178Z,30.38
2022-08-04T11:17:01.963Z,30.15
2022-08-04T11:22:08.870Z,30.22
2022-08-04T11:27:20.251Z,30.29
2022-08-04T11:32:31.971Z,30.38
2022-08-04T11:38:04.863Z,30.41
2022-08-04T11:43:09.074Z,30.23
2022-08-04T11:48:13.666Z,29.93
2022-08-04T11:53:17.188Z,30.02
2022-08-04T11:58:19.096Z,29.69
2022-08-04T12:03:39.711Z,29.76
2022-08-04T12:09:04.342Z,29.61
2022-08-04T12:14:13.592Z,29.23
2022-08-04T12:20:03.386Z,29.57
2022-08-04T12:25:05.330Z,29.56
2022-08-04T12:30:58.980Z,29.22
2022-08-04T12:35:33.155Z,28.97
2022-08-04T12:40:46.934Z,28.74
2022-08-04T12:45:53.173Z,28.55
2022-08-04T12:50:55.884Z,28.71
2022-08-04T12:56:01.593Z,28.43
2022-08-04T13:02:08.036Z,28.49
2022-08-04T13:06:32.705Z,28.78
2022-08-04T13:11:36.287Z,28.74
2022-08-04T13:16:38.641Z,28.51
2022-08-04T13:22:02.250Z,28.46
2022-08-04T13:27:08.993Z,28.33
2022-08-04T13:32:10.853Z,28.18
2022-08-04T13:37:12.494Z,27.81
2022-08-04T13:42:22.676Z,28.17
2022-08-04T13:47:31.061Z,28.04
2022-08-04T13:52:33.633Z,27.81
2022-08-04T13:57:37.661Z,27.73
2022-08-04T14:02:58.910Z,27.76
2022-08-04T14:08:12.175Z,27.70
2022-08-04T14:13:13.936Z,27.60
2022-08-04T14:18:17.609Z,27.72
2022-08-04T14:23:19.158Z,27.02
2022-08-04T14:29:00.022Z,26.77
2022-08-04T14:34:02.085Z,26.09
2022-08-04T14:39:07.238Z,25.75
2022-08-04T14:44:08.771Z,25.19
2022-08-04T14:49:12.033Z,25.23
2022-08-04T14:54:18.452Z,24.93
2022-08-04T14:59:20.441Z,24.96
2022-08-04T15:04:23.191Z,25.08
2022-08-04T15:09:24.758Z,24.82
2022-08-04T15:14:36.790Z,24.44
2022-08-04T15:19:39.711Z,24.36
2022-08-04T15:24:41.229Z,24.30
2022-08-04T15:30:00.941Z,24.58
2022-08-04T15:35:13.340Z,24.44
2022-08-04T15:40:36.876Z,24.58
2022-08-04T15:46:02.189Z,24.59
2022-08-04T15:51:15.134Z,24.88
2022-08-04T15:56:27.426Z,25.13
2022-08-04T16:01:29.081Z,25.20
2022-08-04T16:06:30.783Z,25.66
2022-08-04T16:11:40.384Z,25.18
2022-08-04T16:16:45.381Z,25.10
2022-08-04T16:21:50.963Z,25.45
2022-08-04T16:27:00.433Z,25.50
2022-08-04T16:32:04.798Z,25.31
2022-08-04T16:37:10.391Z,25.38
2022-08-04T16:42:30.379Z,24.98
2022-08-04T16:47:46.896Z,25.12
2022-08-04T16:52:49.543Z,23.99
2022-08-04T16:57:54.984Z,24.47
2022-08-04T17:02:57.578Z,24.76
2022-08-04T17:08:27.247Z,24.64
2022-08-04T17:14:02.090Z,24.56
2022-08-04T17:18:52.417Z,24.70
2022-08-04T17:24:16.349Z,24.37
2022-08-04T17:29:19.692Z,24.19
2022-08-04T17:34:21.634Z,24.16
2022-08-04T17:39:25.285Z,24.46
2022-08-04T17:44:39.176Z,24.22
2022-08-04T17:49:52.736Z,24.83
2022-08-04T17:55:03.655Z,24.34
2022-08-04T18:00:05.703Z,24.48
2022-08-04T18:05:12.158Z,24.87
2022-08-04T18:10:32.912Z,24.62
2022-08-04T18:15:44.275Z,24.79
2022-08-04T18:20:49.980Z,24.84
2022-08-04T18:25:52.343Z,24.71
2022-08-04T18:30:55.221Z,24.86
2022-08-04T18:36:35.232Z,24.73
2022-08-04T18:41:19.254Z,24.82
2022-08-04T18:46:20.782Z,24.35
2022-08-04T18:51:25.213Z,23.74
2022-08-04T18:56:33.191Z,23.66
2022-08-04T19:02:09.189Z,23.80
2022-08-04T19:06:56.431Z,23.30
2022-08-04T19:12:26.791Z,23.42
2022-08-04T19:17:52.669Z,23.60
2022-08-04T19:28:17.470Z,23.01
2022-08-04T19:33:19.295Z,22.90
2022-08-04T19:38:26.763Z,23.07
2022-08-04T19:43:28.682Z,22.86
2022-08-04T19:48:33.156Z,22.96
2022-08-04T19:53:37.571Z,22.92
2022-08-04T19:58:48.121Z,22.83
2022-08-04T20:04:07.960Z,22.78
2022-08-04T20:09:25.081Z,22.79
2022-08-04T20:14:32.597Z,22.47
2022-08-04T20:19:35.346Z,22.42
2022-08-04T20:24:45.918Z,22.36
2022-08-04T20:29:49.848Z,22.19
2022-08-04T20:34:53.253Z,22.47
2022-08-04T20:39:56.064Z,22.47
2022-08-04T20:44:57.637Z,22.14
2022-08-04T20:49:59.298Z,22.27
2022-08-04T20:55:02.604Z,22.62
2022-08-04T21:00:05.604Z,22.92
2022-08-04T21:05:07.346Z,22.39
2022-08-04T21:10:11.021Z,22.52
2022-08-04T21:15:13.325Z,22.65
2022-08-04T21:20:27.412Z,22.20
2022-08-04T21:25:29.768Z,21.80
2022-08-04T21:30:31.452Z,21.89
2022-08-04T21:35:39.093Z,22.22
2022-08-04T21:40:41.405Z,22.15
2022-08-04T21:45:42.919Z,22.41
2022-08-04T21:50:44.558Z,22.09
2022-08-04T21:56:05.598Z,22.52
2022-08-04T22:01:13.178Z,22.50
2022-08-04T22:06:17.454Z,22.01
2022-08-04T22:11:48.309Z,21.99
2022-08-04T22:16:51.914Z,22.14
2022-08-04T22:21:56.016Z,21.72
2022-08-04T22:26:58.713Z,22.23
2022-08-04T22:32:01.202Z,22.19
2022-08-04T22:37:07.524Z,22.01
2022-08-04T22:42:14.286Z,22.18
2022-08-04T22:47:23.498Z,22.34
2022-08-04T22:52:27.914Z,22.31
2022-08-04T22:57:43.551Z,22.33
2022-08-04T23:02:54.771Z,22.28
2022-08-04T23:07:56.283Z,22.10
2022-08-04T23:12:58.010Z,21.92
2022-08-04T23:18:05.900Z,22.30
2022-08-04T23:23:14.894Z,21.99
2022-08-04T23:28:16.812Z,22.17
2022-08-04T23:33:18.341Z,22.49
2022-08-04T23:38:30.361Z,22.55
2022-08-04T23:43:38.532Z,22.39
2022-08-04T23:48:52.028Z,22.47
2022-08-04T23:54:03.106Z,22.53
2022-08-04T23:59:05.788Z,22.54
